createdAt,value
2022-08-11T00:01:18.531Z,101558.13
2022-08-11T00:03:49.242Z,101587.94
2022-08-11T00:06:24.503Z,101381.53
2022-08-11T00:08:52.003Z,101156.63
2022-08-11T00:11:20.137Z,101471.50
2022-08-11T00:13:49.542Z,101561.03
2022-08-11T00:16:21.710Z,101553.75
2022-08-11T00:18:53.709Z,101471.81
2022-08-11T00:21:54.603Z,101208.25
2022-08-11T00:24:09.706Z,100906.03
2022-08-11T00:26:37.622Z,101217.34
2022-08-11T00:29:10.303Z,101494.22
2022-08-11T00:31:38.055Z,101454.72
2022-08-11T00:34:11.085Z,101551.88
2022-08-11T00:36:44.717Z,101455.03
2022-08-11T00:39:12.379Z,101462.75
2022-08-11T00:41:46.024Z,101536.50
2022-08-11T00:44:43.788Z,101550.38
2022-08-11T00:47:20.423Z,101505.78
2022-08-11T00:49:53.548Z,101547.47
2022-08-11T00:52:40.671Z,101465.53
2022-08-11T00:55:31.151Z,101550.72
2022-08-11T00:58:21.816Z,101125.03
2022-08-11T01:01:08.463Z,101554.31
2022-08-11T01:03:55.730Z,101553.19
2022-08-11T01:06:51.227Z,101554.22
2022-08-11T01:10:06.955Z,101561.09
2022-08-11T01:12:40.128Z,101556.59
2022-08-11T01:15:57.619Z,101401.53
2022-08-11T01:18:54.258Z,101551.84
2022-08-11T01:21:57.633Z,101293.88
2022-08-11T01:24:46.199Z,101556.53
2022-08-11T01:27:55.336Z,101517.00
2022-08-11T01:30:54.322Z,101518.88
2022-08-11T01:33:40.399Z,101559.09
2022-08-11T01:36:44.601Z,101556.44
2022-08-11T01:39:29.644Z,101557.72
2022-08-11T01:42:30.021Z,101556.59
2022-08-11T01:45:07.400Z,101550.03
2022-08-11T01:47:53.225Z,101404.13
2022-08-11T01:50:48.674Z,101548.59
2022-08-11T01:53:37.215Z,101560.28
2022-08-11T01:56:30.350Z,101363.25
2022-08-11T01:59:35.592Z,101555.59
2022-08-11T02:02:09.711Z,101553.00
2022-08-11T02:04:49.585Z,101566.69
2022-08-11T02:07:26.297Z,101546.72
2022-08-11T02:10:35.214Z,101566.66
2022-08-11T02:13:37.624Z,101563.09
2022-08-11T02:16:13.681Z,101501.09
2022-08-11T02:19:06.041Z,101497.38
2022-08-11T02:22:05.002Z,101562.19
2022-08-11T02:24:45.545Z,101360.81
2022-08-11T02:27:21.787Z,101467.50
2022-08-11T02:30:08.509Z,101406.09
2022-08-11T02:33:23.332Z,101491.56
2022-08-11T02:36:01.691Z,101380.53
2022-08-11T02:38:54.289Z,101563.38
2022-08-11T02:41:42.733Z,101562.25
2022-08-11T02:44:36.314Z,101566.88
2022-08-11T02:47:18.305Z,101565.03
2022-08-11T02:49:59.965Z,101481.69
2022-08-11T02:52:59.748Z,101566.06
2022-08-11T02:55:57.239Z,101563.19
2022-08-11T02:59:18.744Z,101382.72
2022-08-11T03:01:50.454Z,101569.97
2022-08-11T03:04:37.318Z,101563.63
2022-08-11T03:07:29.716Z,101564.78
2022-08-11T03:10:14.617Z,101562.47
2022-08-11T03:13:08.303Z,101500.34
2022-08-11T03:16:05.166Z,101269.41
2022-08-11T03:18:48.231Z,101425.25
2022-08-11T03:21:21.692Z,101560.16
2022-08-11T03:23:58.476Z,101569.16
2022-08-11T03:26:32.007Z,101480.19
2022-08-11T03:29:31.222Z,101556.56
2022-08-11T03:32:07.705Z,101562.97
2022-08-11T03:34:39.087Z,101212.91
2022-08-11T03:37:46.706Z,101555.88
2022-08-11T03:40:37.929Z,101196.22
2022-08-11T03:43:35.159Z,101390.94
2022-08-11T03:46:13.264Z,101555.56
2022-08-11T03:48:54.481Z,101559.84
2022-08-11T03:51:44.931Z,101521.59
2022-08-11T03:54:25.321Z,101550.28
2022-08-11T03:57:26.198Z,101547.53
2022-08-11T04:00:15.291Z,101550.03
2022-08-11T04:03:39.156Z,101497.91
2022-08-11T04:06:20.713Z,101521.28
2022-08-11T04:09:26.562Z,101556.88
2022-08-11T04:12:08.722Z,101554.78
2022-08-11T04:15:09.704Z,101549.22
2022-08-11T04:18:19.132Z,101561.25
2022-08-11T04:20:58.682Z,101553.03
2022-08-11T04:24:34.893Z,101471.44
2022-08-11T04:26:34.920Z,101553.69
2022-08-11T04:29:32.314Z,101549.19
2022-08-11T04:32:24.356Z,101169.09
2022-08-11T04:35:08.646Z,101559.25
2022-08-11T04:37:43.940Z,101565.16
2022-08-11T04:40:43.055Z,101560.16
2022-08-11T04:44:05.466Z,101497.50
2022-08-11T04:48:01.742Z,101557.56
2022-08-11T04:51:16.852Z,101569.34
2022-08-11T04:54:15.736Z,101571.34
2022-08-11T04:57:03.733Z,101579.66
2022-08-11T05:00:17.809Z,101579.22
2022-08-11T05:03:15.599Z,101568.50
2022-08-11T05:05:56.843Z,101570.19
2022-08-11T05:08:55.814Z,101442.00
2022-08-11T05:12:09.531Z,101513.28
2022-08-11T05:15:04.080Z,101406.91
2022-08-11T05:18:41.917Z,101283.69
2022-08-11T05:21:30.497Z,101386.41
2022-08-11T05:24:38.508Z,101495.72
2022-08-11T05:27:26.730Z,101449.53
2022-08-11T05:30:34.366Z,101554.28
2022-08-11T05:33:38.418Z,101333.16
2022-08-11T05:36:20.867Z,101582.28
2022-08-11T05:39:20.299Z,101531.84
2022-08-11T05:42:30.243Z,101491.31
2022-08-11T05:46:03.999Z,101220.63
2022-08-11T05:48:54.982Z,101585.31
2022-08-11T05:51:55.122Z,101256.59
2022-08-11T05:54:42.625Z,101366.59
2022-08-11T05:57:42.342Z,101593.63
2022-08-11T06:00:12.655Z,101420.84
2022-08-11T06:02:42.337Z,101419.91
2022-08-11T06:05:09.729Z,101115.78
2022-08-11T06:07:48.964Z,101597.81
2022-08-11T06:10:33.387Z,101384.28
2022-08-11T06:13:03.048Z,101586.13
2022-08-11T06:15:34.711Z,101243.41
2022-08-11T06:18:02.977Z,101275.69
2022-08-11T06:20:37.522Z,101582.38
2022-08-11T06:23:07.367Z,101581.34
2022-08-11T06:25:35.936Z,101588.66
2022-08-11T06:28:04.767Z,101569.44
2022-08-11T06:30:40.659Z,101513.59
2022-08-11T06:33:44.002Z,101357.84
2022-08-11T06:36:16.334Z,101585.84
2022-08-11T06:38:53.703Z,101584.22
2022-08-11T06:41:32.777Z,101591.00
2022-08-11T06:44:29.727Z,101597.78
2022-08-11T06:47:06.031Z,101591.59
2022-08-11T06:49:56.160Z,101399.41
2022-08-11T06:52:41.234Z,101521.72
2022-08-11T06:55:12.602Z,101584.22
2022-08-11T06:58:13.796Z,101458.50
2022-08-11T07:00:42.541Z,101560.31
2022-08-11T07:03:13.781Z,101398.03
2022-08-11T07:05:56.095Z,101243.94
2022-08-11T07:09:00.821Z,101583.75
2022-08-11T07:11:49.488Z,101590.47
2022-08-11T07:14:40.839Z,101580.38
2022-08-11T07:17:18.196Z,101476.69
2022-08-11T07:20:10.793Z,101490.22
2022-08-11T07:23:10.622Z,101362.91
2022-08-11T07:25:59.856Z,101531.47
2022-08-11T07:28:47.549Z,101581.84
2022-08-11T07:31:25.758Z,101522.19
2022-08-11T07:34:07.092Z,101477.72
2022-08-11T07:36:40.806Z,101453.00
2022-08-11T07:39:13.655Z,101308.16
2022-08-11T07:41:41.892Z,101268.88
2022-08-11T07:44:09.516Z,101594.72
2022-08-11T07:47:01.447Z,101573.88
2022-08-11T07:49:52.429Z,101525.88
2022-08-11T07:52:30.579Z,101510.16
2022-08-11T07:55:03.951Z,101572.09
2022-08-11T07:58:15.868Z,101564.53
2022-08-11T08:01:22.543Z,101360.28
2022-08-11T08:04:10.007Z,101464.22
2022-08-11T08:06:56.854Z,100996.81
2022-08-11T08:09:43.837Z,101370.31
2022-08-11T08:12:31.523Z,101569.56
2022-08-11T08:15:17.405Z,101252.16
2022-08-11T08:18:09.376Z,101165.56
2022-08-11T08:20:51.827Z,101382.31
2022-08-11T08:23:33.671Z,101578.91
2022-08-11T08:26:04.929Z,101435.41
2022-08-11T08:28:33.880Z,101340.69
2022-08-11T08:31:01.291Z,100959.19
2022-08-11T08:33:30.856Z,101422.97
2022-08-11T08:36:17.049Z,101298.47
2022-08-11T08:38:54.249Z,101222.53
2022-08-11T08:41:28.775Z,101227.97
2022-08-11T08:44:34.642Z,101214.31
2022-08-11T08:46:54.278Z,101530.69
2022-08-11T08:49:32.839Z,101577.94
2022-08-11T08:52:25.348Z,101560.19
2022-08-11T08:54:56.428Z,101376.88
2022-08-11T08:57:24.255Z,101568.19
2022-08-11T08:59:51.793Z,101569.09
2022-08-11T09:02:34.569Z,101418.03
2022-08-11T09:05:04.198Z,101574.97
2022-08-11T09:07:39.671Z,101297.91
2022-08-11T09:10:09.363Z,101281.91
2022-08-11T09:12:38.833Z,101491.69
2022-08-11T09:15:10.256Z,101312.88
2022-08-11T09:17:42.926Z,101565.56
2022-08-11T09:20:24.794Z,101397.38
2022-08-11T09:26:21.672Z,101311.06
2022-08-11T09:28:50.232Z,101416.16
2022-08-11T09:31:17.353Z,101499.03
2022-08-11T09:33:46.113Z,101561.41
2022-08-11T09:36:33.890Z,101371.44
2022-08-11T09:39:21.999Z,101331.63
2022-08-11T09:42:01.099Z,101391.41
2022-08-11T09:44:48.683Z,101558.81
2022-08-11T09:47:29.306Z,101391.53
2022-08-11T09:53:38.158Z,101551.72
2022-08-11T09:55:56.327Z,101524.59
2022-08-11T09:58:42.340Z,101553.28
2022-08-11T10:01:27.315Z,101541.22
2022-08-11T10:04:09.930Z,101333.34
2022-08-11T10:06:56.495Z,101177.03
2022-08-11T10:09:25.485Z,101475.94
2022-08-11T10:11:58.647Z,101518.25
2022-08-11T10:14:46.242Z,101218.25
2022-08-11T10:17:15.435Z,101483.56
2022-08-11T10:19:44.819Z,101399.06
2022-08-11T10:22:51.744Z,101399.94
2022-08-11T10:25:37.893Z,101529.13
2022-08-11T10:28:17.767Z,101518.84
2022-08-11T10:31:16.669Z,101458.53
2022-08-11T10:34:00.361Z,101510.28
2022-08-11T10:36:29.515Z,101503.44
2022-08-11T10:38:57.735Z,101498.88
2022-08-11T10:42:03.339Z,101203.91
2022-08-11T10:44:38.436Z,101423.44
2022-08-11T10:47:25.275Z,101146.38
2022-08-11T10:50:12.753Z,101215.38
2022-08-11T10:52:59.100Z,101405.38
2022-08-11T10:55:46.338Z,101349.16
2022-08-11T10:58:33.938Z,101453.91
2022-08-11T11:01:01.527Z,101475.97
2022-08-11T11:03:30.711Z,101480.63
2022-08-11T11:06:28.666Z,101277.56
2022-08-11T11:09:04.402Z,101471.63
2022-08-11T11:11:55.829Z,101236.38
2022-08-11T11:14:49.768Z,101452.91
2022-08-11T11:17:26.916Z,101181.66
2022-08-11T11:19:58.637Z,101024.16
2022-08-11T11:22:38.455Z,101477.78
2022-08-11T11:25:16.797Z,101023.06
2022-08-11T11:27:57.907Z,101333.38
2022-08-11T11:30:32.291Z,101123.44
2022-08-11T11:33:57.432Z,101252.50
2022-08-11T11:36:41.170Z,101434.66
2022-08-11T11:39:09.013Z,101431.19
2022-08-11T11:41:36.243Z,101431.44
2022-08-11T11:44:05.149Z,101308.38
2022-08-11T11:46:38.591Z,101165.66
2022-08-11T11:49:13.996Z,100950.59
2022-08-11T11:51:50.351Z,101094.16
2022-08-11T11:54:18.073Z,100857.38
2022-08-11T11:56:45.612Z,101398.75
2022-08-11T11:59:31.583Z,101418.63
2022-08-11T12:01:59.913Z,101072.72
2022-08-11T12:04:27.790Z,101261.97
2022-08-11T12:07:15.528Z,100953.91
2022-08-11T12:09:42.879Z,101094.31
2022-08-11T12:12:29.179Z,101394.50
2022-08-11T12:14:56.647Z,101394.94
2022-08-11T12:17:24.002Z,101285.41
2022-08-11T12:19:53.999Z,101114.13
2022-08-11T12:22:43.403Z,100921.63
2022-08-11T12:25:29.667Z,101111.69
2022-08-11T12:27:57.087Z,101375.97
2022-08-11T12:30:24.404Z,101377.34
2022-08-11T12:32:52.474Z,100621.13
2022-08-11T12:35:19.694Z,101049.94
2022-08-11T12:37:50.079Z,101360.09
2022-08-11T12:41:03.435Z,101171.09
2022-08-11T12:43:57.233Z,100975.72
2022-08-11T12:46:37.810Z,101099.34
2022-08-11T12:49:30.664Z,100866.16
2022-08-11T12:52:10.919Z,101173.47
2022-08-11T12:54:52.354Z,101343.63
2022-08-11T12:57:47.224Z,101048.31
2022-08-11T13:00:34.836Z,101015.56
2022-08-11T13:03:21.567Z,101305.38
2022-08-11T13:05:53.759Z,100967.47
2022-08-11T13:08:22.826Z,101288.00
2022-08-11T13:11:09.645Z,101235.69
2022-08-11T13:13:54.496Z,101303.88
2022-08-11T13:16:27.580Z,101259.00
2022-08-11T13:18:55.946Z,101267.63
2022-08-11T13:21:23.824Z,101159.06
2022-08-11T13:24:01.601Z,101280.09
2022-08-11T13:26:43.363Z,101269.22
2022-08-11T13:29:20.608Z,100935.25
2022-08-11T13:31:47.876Z,100924.56
2022-08-11T13:34:20.817Z,101125.81
2022-08-11T13:36:54.001Z,101185.03
2022-08-11T13:39:27.299Z,101165.13
2022-08-11T13:41:56.904Z,101306.25
2022-08-11T13:44:27.225Z,101219.91
2022-08-11T13:47:04.054Z,100792.50
2022-08-11T13:49:32.890Z,101132.56
2022-08-11T13:52:00.091Z,101071.22
2022-08-11T13:54:31.211Z,101301.28
2022-08-11T13:57:02.653Z,100883.66
2022-08-11T13:59:31.372Z,100788.09
2022-08-11T14:02:21.692Z,101286.97
2022-08-11T14:05:09.824Z,101287.53
2022-08-11T14:07:40.193Z,101070.19
2022-08-11T14:10:08.791Z,100805.53
2022-08-11T14:13:09.812Z,101274.22
2022-08-11T14:15:37.012Z,101074.94
2022-08-11T14:18:07.309Z,100806.06
2022-08-11T14:20:55.000Z,101023.31
2022-08-11T14:23:33.304Z,101193.00
2022-08-11T14:26:21.001Z,100897.06
2022-08-11T14:28:49.082Z,100657.84
2022-08-11T14:31:16.943Z,100873.03
2022-08-11T14:34:00.973Z,101001.50
2022-08-11T14:36:32.790Z,101248.66
2022-08-11T14:39:02.593Z,101250.09
2022-08-11T14:42:11.520Z,100974.06
2022-08-11T14:44:57.117Z,100923.69
2022-08-11T14:47:25.756Z,101233.69
2022-08-11T14:50:11.168Z,101231.78
2022-08-11T14:52:56.614Z,101155.81
2022-08-11T14:55:44.675Z,100780.84
2022-08-11T14:58:14.783Z,100543.41
2022-08-11T15:00:43.426Z,101225.16
2022-08-11T15:03:13.942Z,101241.63
2022-08-11T15:05:56.318Z,100673.41
2022-08-11T15:08:50.900Z,100972.56
2022-08-11T15:11:38.396Z,100826.38
2022-08-11T15:14:08.236Z,100796.56
2022-08-11T15:16:58.035Z,100636.81
2022-08-11T15:19:26.207Z,101130.25
2022-08-11T15:22:12.660Z,101209.72
2022-08-11T15:24:40.329Z,101047.63
2022-08-11T15:27:31.492Z,101161.09
2022-08-11T15:30:33.573Z,100806.50
2022-08-11T15:33:28.622Z,101080.53
2022-08-11T15:36:16.977Z,101074.69
2022-08-11T15:38:59.890Z,101196.22
2022-08-11T15:41:59.448Z,100919.53
2022-08-11T15:45:03.635Z,101193.31
2022-08-11T15:47:42.514Z,100403.69
2022-08-11T15:50:23.533Z,101208.91
2022-08-11T15:53:02.501Z,101183.13
2022-08-11T15:55:35.759Z,101175.03
2022-08-11T15:58:28.156Z,101185.75
2022-08-11T16:01:16.007Z,101036.28
2022-08-11T16:04:13.488Z,100844.19
2022-08-11T16:07:07.316Z,101001.75
2022-08-11T16:09:51.931Z,101167.53
2022-08-11T16:12:32.928Z,101065.16
2022-08-11T16:15:30.575Z,101162.72
2022-08-11T16:18:05.025Z,101157.03
2022-08-11T16:20:48.598Z,100991.56
2022-08-11T16:23:25.520Z,100907.44
2022-08-11T16:27:06.891Z,100801.44
2022-08-11T16:28:44.275Z,101150.16
2022-08-11T16:31:12.418Z,100948.31
2022-08-11T16:33:51.072Z,101153.00
2022-08-11T16:36:39.033Z,101082.00
2022-08-11T16:39:07.839Z,100869.50
2022-08-11T16:41:55.500Z,100991.69
2022-08-11T16:44:41.646Z,101139.47
2022-08-11T16:47:14.179Z,101134.84
2022-08-11T16:49:52.576Z,100978.69
2022-08-11T16:52:23.111Z,101142.94
2022-08-11T16:54:50.583Z,101144.53
2022-08-11T16:57:46.251Z,101055.72
2022-08-11T17:00:16.368Z,101130.09
2022-08-11T17:03:04.985Z,100625.06
2022-08-11T17:05:55.359Z,101003.53
2022-08-11T17:08:56.726Z,101129.78
2022-08-11T17:11:48.507Z,101129.31
2022-08-11T17:14:35.840Z,100884.84
2022-08-11T17:17:13.022Z,100695.00
2022-08-11T17:20:41.888Z,100758.94
2022-08-11T17:22:53.279Z,101010.00
2022-08-11T17:25:20.632Z,100936.28
2022-08-11T17:27:48.190Z,101126.94
2022-08-11T17:30:16.031Z,100960.19
2022-08-11T17:33:10.086Z,100865.72
2022-08-11T17:35:40.249Z,100834.38
2022-08-11T17:38:14.441Z,100970.97
2022-08-11T17:41:05.291Z,100795.25
2022-08-11T17:43:51.675Z,101126.41
2022-08-11T17:46:38.486Z,101148.59
2022-08-11T17:49:07.835Z,101046.25
2022-08-11T17:51:54.625Z,101132.19
2022-08-11T17:54:41.686Z,101127.63
2022-08-11T17:57:28.331Z,100932.22
2022-08-11T17:59:59.100Z,100865.56
2022-08-11T18:02:53.053Z,100814.75
2022-08-11T18:05:22.211Z,100377.97
2022-08-11T18:08:10.133Z,101122.84
2022-08-11T18:10:56.412Z,101125.88
2022-08-11T18:13:43.095Z,101130.91
2022-08-11T18:16:29.363Z,100827.88
2022-08-11T18:19:15.788Z,100936.00
2022-08-11T18:22:14.201Z,101134.09
2022-08-11T18:25:11.632Z,101060.56
2022-08-11T18:28:02.146Z,101022.41
2022-08-11T18:30:51.692Z,101139.19
2022-08-11T18:34:06.877Z,101142.06
2022-08-11T18:36:59.204Z,100908.31
2022-08-11T18:39:54.532Z,100654.97
2022-08-11T18:42:43.839Z,101135.44
2022-08-11T18:45:39.997Z,100580.72
2022-08-11T18:48:37.178Z,101149.78
2022-08-11T18:51:30.484Z,100991.91
2022-08-11T18:54:28.272Z,100990.28
2022-08-11T18:57:17.383Z,101143.09
2022-08-11T19:00:04.955Z,101147.53
2022-08-11T19:02:52.208Z,101159.94
2022-08-11T19:06:32.302Z,101162.28
2022-08-11T19:08:49.571Z,101165.59
2022-08-11T19:11:42.377Z,101048.66
2022-08-11T19:14:34.180Z,101166.41
2022-08-11T19:17:43.970Z,101021.28
2022-08-11T19:20:31.995Z,101179.91
2022-08-11T19:23:18.468Z,101190.78
2022-08-11T19:26:05.802Z,100933.38
2022-08-11T19:28:53.308Z,101201.19
2022-08-11T19:31:44.771Z,101198.22
2022-08-11T19:34:38.925Z,100884.19
2022-08-11T19:37:26.137Z,100993.91
2022-08-11T19:40:19.263Z,100994.09
2022-08-11T19:43:14.867Z,101152.97
2022-08-11T19:46:15.514Z,100774.19
2022-08-11T19:49:03.178Z,101221.50
2022-08-11T19:51:54.028Z,101222.41
2022-08-11T19:54:45.167Z,101233.25
2022-08-11T19:57:35.725Z,100953.09
2022-08-11T20:00:36.211Z,101123.66
2022-08-11T20:03:26.331Z,101224.19
2022-08-11T20:06:14.762Z,101025.16
2022-08-11T20:09:02.453Z,100976.09
2022-08-11T20:11:56.157Z,100786.75
2022-08-11T20:14:43.257Z,100799.03
2022-08-11T20:17:32.064Z,101035.38
2022-08-11T20:20:22.751Z,101230.50
2022-08-11T20:23:12.200Z,100710.25
2022-08-11T20:26:08.377Z,101145.41
2022-08-11T20:29:04.338Z,100791.16
2022-08-11T20:31:50.561Z,101246.94
2022-08-11T20:34:37.317Z,101023.75
2022-08-11T20:37:24.351Z,101081.19
2022-08-11T20:40:11.491Z,101036.84
2022-08-11T20:42:57.661Z,100798.06
2022-08-11T20:45:55.150Z,100867.97
2022-08-11T20:48:44.117Z,101248.28
2022-08-11T20:51:33.984Z,101246.72
2022-08-11T20:57:59.144Z,100821.53
2022-08-11T21:00:47.791Z,100561.78
2022-08-11T21:03:36.309Z,101005.75
2022-08-11T21:06:33.006Z,101158.84
2022-08-11T21:09:23.888Z,101255.94
2022-08-11T21:12:29.957Z,101262.91
2022-08-11T21:15:38.902Z,101055.09
2022-08-11T21:18:27.502Z,101050.41
2022-08-11T21:21:16.842Z,100754.97
2022-08-11T21:24:03.124Z,100824.13
2022-08-11T21:26:50.551Z,101241.13
2022-08-11T21:29:36.693Z,101254.34
2022-08-11T21:32:22.824Z,101131.72
2022-08-11T21:35:09.052Z,101139.84
2022-08-11T21:37:56.146Z,101001.88
2022-08-11T21:40:45.799Z,101259.03
2022-08-11T21:43:32.762Z,101247.34
2022-08-11T21:46:22.511Z,101257.84
2022-08-11T21:49:10.306Z,101191.31
2022-08-11T21:52:00.148Z,101172.56
2022-08-11T21:54:46.284Z,101246.13
2022-08-11T21:57:33.933Z,101245.09
2022-08-11T22:00:20.326Z,101267.94
2022-08-11T22:03:06.420Z,100988.56
2022-08-11T22:05:53.562Z,100634.13
2022-08-11T22:08:39.307Z,101131.47
2022-08-11T22:11:32.203Z,101252.69
2022-08-11T22:14:20.103Z,100954.44
2022-08-11T22:17:15.155Z,100343.44
2022-08-11T22:20:01.684Z,101168.41
2022-08-11T22:22:53.228Z,100964.72
2022-08-11T22:25:51.327Z,101244.41
2022-08-11T22:28:40.159Z,101104.66
2022-08-11T22:31:30.046Z,100996.75
2022-08-11T22:34:16.268Z,101028.22
2022-08-11T22:37:03.055Z,101243.41
2022-08-11T22:40:02.681Z,101157.31
2022-08-11T22:42:50.714Z,101151.19
2022-08-11T22:45:38.297Z,101161.13
2022-08-11T22:48:26.796Z,101182.22
2022-08-11T22:51:15.053Z,101156.66
2022-08-11T22:54:01.745Z,101167.59
2022-08-11T22:56:49.304Z,101263.19
2022-08-11T22:59:37.166Z,101254.13
2022-08-11T23:02:25.346Z,101256.00
2022-08-11T23:05:11.654Z,101038.78
2022-08-11T23:07:59.393Z,101130.56
2022-08-11T23:10:45.404Z,101182.06
2022-08-11T23:13:35.561Z,101249.66
2022-08-11T23:16:21.672Z,101161.25
2022-08-11T23:19:08.229Z,100886.88
2022-08-11T23:21:54.919Z,101193.00
2022-08-11T23:24:43.310Z,101055.97
2022-08-11T23:27:29.534Z,100567.94
2022-08-11T23:30:18.834Z,101262.66
2022-08-11T23:33:06.298Z,101028.66
2022-08-11T23:35:58.017Z,101153.13
2022-08-11T23:38:46.804Z,101171.28
2022-08-11T23:41:36.049Z,101122.88
2022-08-11T23:44:23.668Z,101176.81
2022-08-11T23:47:14.638Z,101275.19
2022-08-11T23:50:01.242Z,100993.28
2022-08-11T23:52:49.402Z,101209.38
2022-08-11T23:55:38.808Z,101061.88
2022-08-11T23:58:28.014Z,101206.91
